sensor_id;sensor_type;location;lat;lon;timestamp;pressure;altitude;pressure_sealevel;temperature;humidity
49759;BME280;35654;46.080;11.118;2022-09-09T00:06:45;99102.66;;;20.67;98.87
49759;BME280;35654;46.080;11.118;2022-09-09T00:09:18;99097.50;;;20.66;97.96
49759;BME280;35654;46.080;11.118;2022-09-09T00:15:05;99087.59;;;20.68;96.56
49759;BME280;35654;46.080;11.118;2022-09-09T00:17:34;99085.25;;;20.70;96.19
49759;BME280;35654;46.080;11.118;2022-09-09T00:23:30;99083.78;;;20.76;95.93
49759;BME280;35654;46.080;11.118;2022-09-09T00:25:59;99096.88;;;20.76;95.05
49759;BME280;35654;46.080;11.118;2022-09-09T00:28:28;99086.47;;;20.73;94.51
49759;BME280;35654;46.080;11.118;2022-09-09T00:31:04;99087.22;;;20.70;95.26
49759;BME280;35654;46.080;11.118;2022-09-09T00:33:36;99091.31;;;20.76;94.53
49759;BME280;35654;46.080;11.118;2022-09-09T00:36:02;99093.34;;;20.79;93.63
49759;BME280;35654;46.080;11.118;2022-09-09T00:38:33;99089.38;;;20.80;93.28
49759;BME280;35654;46.080;11.118;2022-09-09T00:43:53;99082.56;;;20.77;94.15
49759;BME280;35654;46.080;11.118;2022-09-09T00:49:18;99084.59;;;20.77;93.80
49759;BME280;35654;46.080;11.118;2022-09-09T00:52:03;99095.31;;;20.78;91.71
49759;BME280;35654;46.080;11.118;2022-09-09T00:57:28;99097.00;;;20.83;91.02
49759;BME280;35654;46.080;11.118;2022-09-09T01:11:20;99104.50;;;20.79;90.93
49759;BME280;35654;46.080;11.118;2022-09-09T01:13:52;99097.38;;;20.81;92.74
49759;BME280;35654;46.080;11.118;2022-09-09T01:16:20;99104.56;;;20.82;90.55
49759;BME280;35654;46.080;11.118;2022-09-09T01:18:49;99099.44;;;20.84;90.38
49759;BME280;35654;46.080;11.118;2022-09-09T01:21:59;99099.03;;;20.86;89.63
49759;BME280;35654;46.080;11.118;2022-09-09T01:27:02;99103.56;;;20.71;91.56
49759;BME280;35654;46.080;11.118;2022-09-09T01:29:30;99104.78;;;20.74;91.64
49759;BME280;35654;46.080;11.118;2022-09-09T01:32:02;99107.50;;;20.70;91.52
49759;BME280;35654;46.080;11.118;2022-09-09T01:34:31;99105.56;;;20.74;91.46
49759;BME280;35654;46.080;11.118;2022-09-09T01:39:27;99102.50;;;20.79;91.55
49759;BME280;35654;46.080;11.118;2022-09-09T01:41:56;99107.34;;;20.82;91.30
49759;BME280;35654;46.080;11.118;2022-09-09T01:44:23;99104.56;;;20.82;91.95
49759;BME280;35654;46.080;11.118;2022-09-09T01:46:49;99100.59;;;20.83;91.12
49759;BME280;35654;46.080;11.118;2022-09-09T01:49:16;99093.78;;;20.81;91.48
49759;BME280;35654;46.080;11.118;2022-09-09T01:51:43;99104.91;;;20.81;90.09
49759;BME280;35654;46.080;11.118;2022-09-09T01:54:11;99095.31;;;20.78;90.39
49759;BME280;35654;46.080;11.118;2022-09-09T02:02:22;99099.97;;;20.71;91.44
49759;BME280;35654;46.080;11.118;2022-09-09T02:04:54;99095.22;;;20.71;92.92
49759;BME280;35654;46.080;11.118;2022-09-09T02:07:30;99095.47;;;20.66;91.43
49759;BME280;35654;46.080;11.118;2022-09-09T02:10:13;99103.47;;;20.68;91.70
49759;BME280;35654;46.080;11.118;2022-09-09T02:12:45;99103.41;;;20.64;92.72
49759;BME280;35654;46.080;11.118;2022-09-09T02:15:23;99109.84;;;20.68;92.50
49759;BME280;35654;46.080;11.118;2022-09-09T02:17:52;99106.34;;;20.71;93.03
49759;BME280;35654;46.080;11.118;2022-09-09T02:20:20;99101.13;;;20.70;90.88
49759;BME280;35654;46.080;11.118;2022-09-09T02:22:49;99106.34;;;20.71;88.61
49759;BME280;35654;46.080;11.118;2022-09-09T02:25:17;99102.66;;;20.67;89.36
49759;BME280;35654;46.080;11.118;2022-09-09T02:27:46;99100.28;;;20.66;88.94
49759;BME280;35654;46.080;11.118;2022-09-09T02:30:13;99097.50;;;20.66;88.36
49759;BME280;35654;46.080;11.118;2022-09-09T02:32:42;99089.13;;;20.66;88.22
49759;BME280;35654;46.080;11.118;2022-09-09T02:35:12;99081.97;;;20.65;88.69
49759;BME280;35654;46.080;11.118;2022-09-09T02:37:39;99080.22;;;20.57;87.95
49759;BME280;35654;46.080;11.118;2022-09-09T02:40:08;99080.22;;;20.57;87.54
49759;BME280;35654;46.080;11.118;2022-09-09T02:42:45;99086.88;;;20.52;86.78
49759;BME280;35654;46.080;11.118;2022-09-09T02:45:12;99077.66;;;20.48;87.91
49759;BME280;35654;46.080;11.118;2022-09-09T02:50:35;99083.38;;;20.36;88.42
49759;BME280;35654;46.080;11.118;2022-09-09T02:55:51;99087.69;;;20.33;89.25
49759;BME280;35654;46.080;11.118;2022-09-09T02:58:20;99085.00;;;20.37;90.23
49759;BME280;35654;46.080;11.118;2022-09-09T03:00:48;99088.56;;;20.38;89.52
49759;BME280;35654;46.080;11.118;2022-09-09T03:03:15;99080.16;;;20.34;88.23
49759;BME280;35654;46.080;11.118;2022-09-09T03:05:42;99076.44;;;20.26;88.50
49759;BME280;35654;46.080;11.118;2022-09-09T03:08:07;99076.06;;;20.28;88.71
49759;BME280;35654;46.080;11.118;2022-09-09T03:10:33;99084.47;;;20.31;88.05
49759;BME280;35654;46.080;11.118;2022-09-09T03:13:00;99079.72;;;20.32;88.88
49759;BME280;35654;46.080;11.118;2022-09-09T03:15:26;99081.69;;;20.31;88.92
49759;BME280;35654;46.080;11.118;2022-09-09T03:17:57;99073.69;;;20.30;90.65
49759;BME280;35654;46.080;11.118;2022-09-09T03:20:27;99074.81;;;20.25;90.58
49759;BME280;35654;46.080;11.118;2022-09-09T03:22:54;99074.00;;;20.25;90.72
49759;BME280;35654;46.080;11.118;2022-09-09T03:25:20;99061.09;;;20.17;88.92
49759;BME280;35654;46.080;11.118;2022-09-09T03:27:46;99063.78;;;20.13;88.92
49759;BME280;35654;46.080;11.118;2022-09-09T03:30:11;99064.97;;;20.12;89.00
49759;BME280;35654;46.080;11.118;2022-09-09T03:32:37;99072.81;;;20.07;89.43
49759;BME280;35654;46.080;11.118;2022-09-09T03:35:03;99067.16;;;20.03;89.99
49759;BME280;35654;46.080;11.118;2022-09-09T03:37:28;99064.81;;;20.05;90.94
49759;BME280;35654;46.080;11.118;2022-09-09T03:39:54;99061.19;;;20.01;90.08
49759;BME280;35654;46.080;11.118;2022-09-09T03:42:19;99057.50;;;19.97;89.72
49759;BME280;35654;46.080;11.118;2022-09-09T03:44:46;99051.09;;;19.93;89.32
49759;BME280;35654;46.080;11.118;2022-09-09T03:47:19;99048.66;;;19.92;90.66
49759;BME280;35654;46.080;11.118;2022-09-09T03:49:47;99053.03;;;19.93;90.79
49759;BME280;35654;46.080;11.118;2022-09-09T03:52:13;99046.59;;;19.89;90.77
49759;BME280;35654;46.080;11.118;2022-09-09T03:54:39;99052.97;;;19.89;91.78
49759;BME280;35654;46.080;11.118;2022-09-09T03:57:06;99053.78;;;19.90;90.85
49759;BME280;35654;46.080;11.118;2022-09-09T03:59:31;99054.63;;;19.94;91.98
49759;BME280;35654;46.080;11.118;2022-09-09T04:01:57;99056.25;;;19.95;90.35
49759;BME280;35654;46.080;11.118;2022-09-09T04:04:24;99055.88;;;19.96;89.56
49759;BME280;35654;46.080;11.118;2022-09-09T04:06:49;99051.59;;;19.99;88.42
49759;BME280;35654;46.080;11.118;2022-09-09T04:09:15;99048.34;;;19.97;89.32
49759;BME280;35654;46.080;11.118;2022-09-09T04:11:41;99045.53;;;19.93;89.93
49759;BME280;35654;46.080;11.118;2022-09-09T04:14:06;99046.31;;;19.94;88.79
49759;BME280;35654;46.080;11.118;2022-09-09T04:16:33;99042.28;;;19.91;89.28
49759;BME280;35654;46.080;11.118;2022-09-09T04:18:59;99049.47;;;19.92;89.62
49759;BME280;35654;46.080;11.118;2022-09-09T04:21:26;99050.69;;;19.95;88.92
49759;BME280;35654;46.080;11.118;2022-09-09T04:23:51;99053.41;;;19.91;87.69
49759;BME280;35654;46.080;11.118;2022-09-09T04:26:16;99052.34;;;19.80;87.21
49759;BME280;35654;46.080;11.118;2022-09-09T04:28:42;99047.09;;;19.75;87.68
49759;BME280;35654;46.080;11.118;2022-09-09T04:31:10;99045.66;;;19.81;87.21
49759;BME280;35654;46.080;11.118;2022-09-09T04:33:37;99036.50;;;19.81;87.11
49759;BME280;35654;46.080;11.118;2022-09-09T04:36:03;99040.19;;;19.85;86.84
49759;BME280;35654;46.080;11.118;2022-09-09T04:38:29;99049.66;;;19.84;86.23
49759;BME280;35654;46.080;11.118;2022-09-09T04:40:54;99047.78;;;19.88;87.19
49759;BME280;35654;46.080;11.118;2022-09-09T04:43:20;99046.50;;;19.85;87.31
49759;BME280;35654;46.080;11.118;2022-09-09T04:45:51;99051.19;;;19.81;87.92
49759;BME280;35654;46.080;11.118;2022-09-09T04:48:18;99056.47;;;19.86;86.84
49759;BME280;35654;46.080;11.118;2022-09-09T04:50:54;99044.19;;;19.87;86.07
49759;BME280;35654;46.080;11.118;2022-09-09T04:53:21;99046.16;;;19.87;86.89
49759;BME280;35654;46.080;11.118;2022-09-09T04:55:48;99046.97;;;19.87;85.16
49759;BME280;35654;46.080;11.118;2022-09-09T04:58:15;99047.31;;;19.86;84.89
49759;BME280;35654;46.080;11.118;2022-09-09T05:00:42;99054.06;;;19.85;85.30
49759;BME280;35654;46.080;11.118;2022-09-09T05:03:09;99061.31;;;19.89;84.79
49759;BME280;35654;46.080;11.118;2022-09-09T05:05:35;99053.19;;;20.00;84.40
49759;BME280;35654;46.080;11.118;2022-09-09T05:08:06;99067.69;;;20.09;85.74
49759;BME280;35654;46.080;11.118;2022-09-09T05:10:32;99067.31;;;20.10;84.70
49759;BME280;35654;46.080;11.118;2022-09-09T05:12:59;99071.84;;;20.18;85.11
49759;BME280;35654;46.080;11.118;2022-09-09T05:15:25;99067.63;;;20.24;85.09
49759;BME280;35654;46.080;11.118;2022-09-09T05:17:52;99065.09;;;20.35;83.31
49759;BME280;35654;46.080;11.118;2022-09-09T05:20:23;99049.91;;;20.32;82.82
49759;BME280;35654;46.080;11.118;2022-09-09T05:22:55;99064.59;;;20.29;82.55
49759;BME280;35654;46.080;11.118;2022-09-09T05:25:23;99066.56;;;20.29;82.17
49759;BME280;35654;46.080;11.118;2022-09-09T05:27:52;99070.19;;;20.33;82.45
49759;BME280;35654;46.080;11.118;2022-09-09T05:30:20;99075.03;;;20.36;81.27
49759;BME280;35654;46.080;11.118;2022-09-09T05:32:48;99072.34;;;20.24;80.89
49759;BME280;35654;46.080;11.118;2022-09-09T05:35:15;99076.66;;;20.21;81.43
49759;BME280;35654;46.080;11.118;2022-09-09T05:37:42;99075.88;;;20.21;81.71
49759;BME280;35654;46.080;11.118;2022-09-09T05:40:09;99074.25;;;20.20;82.76
49759;BME280;35654;46.080;11.118;2022-09-09T05:42:37;99089.09;;;20.43;84.22
49759;BME280;35654;46.080;11.118;2022-09-09T05:45:06;99096.06;;;20.75;79.69
49759;BME280;35654;46.080;11.118;2022-09-09T05:47:35;99093.66;;;20.74;80.67
49759;BME280;35654;46.080;11.118;2022-09-09T05:50:04;99091.44;;;20.83;81.37
49759;BME280;35654;46.080;11.118;2022-09-09T05:52:30;99088.09;;;20.74;77.75
49759;BME280;35654;46.080;11.118;2022-09-09T05:54:58;99073.75;;;20.95;79.45
49759;BME280;35654;46.080;11.118;2022-09-09T05:57:26;99060.13;;;21.09;77.61
49759;BME280;35654;46.080;11.118;2022-09-09T05:59:52;99050.50;;;21.06;76.23
49759;BME280;35654;46.080;11.118;2022-09-09T06:02:19;99056.44;;;21.05;78.37
49759;BME280;35654;46.080;11.118;2022-09-09T06:04:46;99054.91;;;20.84;75.69
49759;BME280;35654;46.080;11.118;2022-09-09T06:07:13;99065.34;;;20.68;77.54
49759;BME280;35654;46.080;11.118;2022-09-09T06:09:40;99059.03;;;20.71;77.50
49759;BME280;35654;46.080;11.118;2022-09-09T06:12:08;99071.91;;;20.60;76.74
49759;BME280;35654;46.080;11.118;2022-09-09T06:14:35;99074.03;;;20.67;76.67
49759;BME280;35654;46.080;11.118;2022-09-09T06:17:03;99067.25;;;20.45;77.19
49759;BME280;35654;46.080;11.118;2022-09-09T06:19:33;99064.91;;;20.47;79.29
49759;BME280;35654;46.080;11.118;2022-09-09T06:22:00;99060.13;;;20.67;77.39
49759;BME280;35654;46.080;11.118;2022-09-09T06:24:27;99054.38;;;20.56;76.47
49759;BME280;35654;46.080;11.118;2022-09-09T06:26:54;99048.66;;;20.49;77.21
49759;BME280;35654;46.080;11.118;2022-09-09T06:29:19;99048.66;;;20.49;77.30
49759;BME280;35654;46.080;11.118;2022-09-09T06:31:46;99049.53;;;20.53;77.86
49759;BME280;35654;46.080;11.118;2022-09-09T06:34:13;99042.06;;;20.57;77.41
49759;BME280;35654;46.080;11.118;2022-09-09T06:36:40;99052.72;;;20.74;76.93
49759;BME280;35654;46.080;11.118;2022-09-09T06:39:07;99054.75;;;20.77;76.62
49759;BME280;35654;46.080;11.118;2022-09-09T06:41:35;99048.44;;;20.80;76.94
49759;BME280;35654;46.080;11.118;2022-09-09T06:44:01;99046.97;;;20.86;77.31
49759;BME280;35654;46.080;11.118;2022-09-09T06:46:30;99052.59;;;20.90;77.28
49759;BME280;35654;46.080;11.118;2022-09-09T06:48:59;99053.22;;;20.80;77.95
49759;BME280;35654;46.080;11.118;2022-09-09T06:51:31;99053.69;;;20.85;78.09
49759;BME280;35654;46.080;11.118;2022-09-09T06:54:00;99066.31;;;21.02;76.95
49759;BME280;35654;46.080;11.118;2022-09-09T06:56:36;99078.22;;;20.99;76.77
49759;BME280;35654;46.080;11.118;2022-09-09T06:59:05;99082.91;;;20.95;76.61
49759;BME280;35654;46.080;11.118;2022-09-09T07:01:34;99084.53;;;20.96;76.09
49759;BME280;35654;46.080;11.118;2022-09-09T07:04:02;99076.03;;;20.89;76.02
49759;BME280;35654;46.080;11.118;2022-09-09T07:06:38;99068.13;;;20.91;76.44
49759;BME280;35654;46.080;11.118;2022-09-09T07:09:15;99073.94;;;21.05;76.21
49759;BME280;35654;46.080;11.118;2022-09-09T07:11:47;99081.13;;;21.06;75.88
49759;BME280;35654;46.080;11.118;2022-09-09T07:14:14;99078.72;;;21.05;76.28
49759;BME280;35654;46.080;11.118;2022-09-09T07:16:40;99083.47;;;21.04;76.66
49759;BME280;35654;46.080;11.118;2022-09-09T07:19:07;99078.94;;;21.15;76.43
49759;BME280;35654;46.080;11.118;2022-09-09T07:21:33;99079.84;;;21.23;76.09
49759;BME280;35654;46.080;11.118;2022-09-09T07:23:58;99075.56;;;21.29;76.22
49759;BME280;35654;46.080;11.118;2022-09-09T07:26:26;99079.53;;;21.28;75.78
49759;BME280;35654;46.080;11.118;2022-09-09T07:28:52;99089.00;;;21.23;74.99
49759;BME280;35654;46.080;11.118;2022-09-09T07:31:21;99074.91;;;21.13;74.74
49759;BME280;35654;46.080;11.118;2022-09-09T07:33:47;99072.34;;;21.04;74.81
49759;BME280;35654;46.080;11.118;2022-09-09T07:36:17;99080.94;;;20.96;75.16
49759;BME280;35654;46.080;11.118;2022-09-09T07:38:47;99087.91;;;20.86;76.48
49759;BME280;35654;46.080;11.118;2022-09-09T07:41:16;99081.44;;;20.59;80.36
49759;BME280;35654;46.080;11.118;2022-09-09T07:43:43;99086.22;;;20.40;83.82
49759;BME280;35654;46.080;11.118;2022-09-09T07:46:11;99088.78;;;20.29;83.88
49759;BME280;35654;46.080;11.118;2022-09-09T07:48:37;99085.75;;;20.18;85.41
49759;BME280;35654;46.080;11.118;2022-09-09T07:51:08;99089.41;;;20.03;85.85
49759;BME280;35654;46.080;11.118;2022-09-09T07:53:35;99092.19;;;20.22;88.11
49759;BME280;35654;46.080;11.118;2022-09-09T07:56:10;99101.47;;;20.26;89.41
49759;BME280;35654;46.080;11.118;2022-09-09T07:58:36;99112.94;;;20.25;89.88
49759;BME280;35654;46.080;11.118;2022-09-09T08:01:09;99121.25;;;20.44;88.69
49759;BME280;35654;46.080;11.118;2022-09-09T08:03:34;99113.59;;;20.57;88.21
49759;BME280;35654;46.080;11.118;2022-09-09T08:06:02;99120.81;;;20.61;90.24
49759;BME280;35654;46.080;11.118;2022-09-09T08:08:28;99129.47;;;20.75;89.31
49759;BME280;35654;46.080;11.118;2022-09-09T08:11:01;99125.34;;;20.69;90.97
49759;BME280;35654;46.080;11.118;2022-09-09T08:13:27;99130.19;;;20.72;91.13
49759;BME280;35654;46.080;11.118;2022-09-09T08:15:52;99134.09;;;20.68;92.02
49759;BME280;35654;46.080;11.118;2022-09-09T08:18:18;99138.59;;;20.76;91.51
49759;BME280;35654;46.080;11.118;2022-09-09T08:20:43;99140.66;;;20.79;90.79
49759;BME280;35654;46.080;11.118;2022-09-09T08:23:09;99142.13;;;20.54;92.18
49759;BME280;35654;46.080;11.118;2022-09-09T08:25:34;99147.50;;;20.43;93.79
49759;BME280;35654;46.080;11.118;2022-09-09T08:28:00;99155.75;;;20.40;92.35
49759;BME280;35654;46.080;11.118;2022-09-09T08:30:25;99164.59;;;20.45;91.31
49759;BME280;35654;46.080;11.118;2022-09-09T08:32:51;99165.13;;;20.51;91.38
49759;BME280;35654;46.080;11.118;2022-09-09T08:35:17;99163.44;;;20.46;87.98
49759;BME280;35654;46.080;11.118;2022-09-09T08:37:42;99161.22;;;20.36;89.35
49759;BME280;35654;46.080;11.118;2022-09-09T08:40:17;99162.25;;;20.28;92.15
49759;BME280;35654;46.080;11.118;2022-09-09T08:42:51;99155.06;;;20.27;91.85
49759;BME280;35654;46.080;11.118;2022-09-09T08:50:44;99180.34;;;20.22;88.26
49759;BME280;35654;46.080;11.118;2022-09-09T08:55:52;99177.28;;;19.76;88.86
49759;BME280;35654;46.080;11.118;2022-09-09T08:58:27;99168.50;;;19.90;90.58
49759;BME280;35654;46.080;11.118;2022-09-09T09:06:18;99191.28;;;19.96;89.96
49759;BME280;35654;46.080;11.118;2022-09-09T09:11:45;99185.97;;;19.91;91.11
49759;BME280;35654;46.080;11.118;2022-09-09T09:14:17;99189.50;;;19.88;91.40
49759;BME280;35654;46.080;11.118;2022-09-09T09:16:49;99193.06;;;20.04;92.67
49759;BME280;35654;46.080;11.118;2022-09-09T09:19:17;99198.50;;;20.00;91.11
49759;BME280;35654;46.080;11.118;2022-09-09T09:27:10;99201.25;;;20.16;90.52
49759;BME280;35654;46.080;11.118;2022-09-09T09:29:37;99206.63;;;20.40;90.08
49759;BME280;35654;46.080;11.118;2022-09-09T09:32:05;99204.16;;;20.54;89.42
49759;BME280;35654;46.080;11.118;2022-09-09T09:34:35;99202.63;;;20.76;87.14
49759;BME280;35654;46.080;11.118;2022-09-09T09:37:01;99192.91;;;20.31;87.57
49759;BME280;35654;46.080;11.118;2022-09-09T09:39:32;99200.78;;;20.64;86.60
49759;BME280;35654;46.080;11.118;2022-09-09T09:42:14;99197.84;;;20.57;85.88
49759;BME280;35654;46.080;11.118;2022-09-09T09:44:41;99195.44;;;20.56;85.83
49759;BME280;35654;46.080;11.118;2022-09-09T09:47:22;99199.53;;;20.81;84.81
49759;BME280;35654;46.080;11.118;2022-09-09T09:49:56;99208.00;;;20.69;84.56
49759;BME280;35654;46.080;11.118;2022-09-09T09:52:28;99202.41;;;20.65;83.91
49759;BME280;35654;46.080;11.118;2022-09-09T09:54:56;99211.50;;;20.47;83.96
49759;BME280;35654;46.080;11.118;2022-09-09T09:57:31;99216.22;;;20.81;84.03
49759;BME280;35654;46.080;11.118;2022-09-09T10:00:13;99205.63;;;20.67;84.17
49759;BME280;35654;46.080;11.118;2022-09-09T10:02:41;99206.53;;;20.37;81.93
49759;BME280;35654;46.080;11.118;2022-09-09T10:05:21;99207.66;;;19.85;83.78
49759;BME280;35654;46.080;11.118;2022-09-09T10:08:09;99197.84;;;19.88;83.19
49759;BME280;35654;46.080;11.118;2022-09-09T10:11:24;99186.22;;;20.71;80.06
49759;BME280;35654;46.080;11.118;2022-09-09T10:19:34;99177.47;;;22.28;70.28
49759;BME280;35654;46.080;11.118;2022-09-09T10:22:26;99187.69;;;22.76;67.44
49759;BME280;35654;46.080;11.118;2022-09-09T10:25:21;99177.75;;;22.19;67.65
49759;BME280;35654;46.080;11.118;2022-09-09T10:33:57;99182.38;;;22.12;68.98
49759;BME280;35654;46.080;11.118;2022-09-09T10:36:21;99175.81;;;21.74;68.64
49759;BME280;35654;46.080;11.118;2022-09-09T10:38:52;99170.19;;;21.93;68.27
49759;BME280;35654;46.080;11.118;2022-09-09T10:55:27;99165.84;;;21.28;69.52
49759;BME280;35654;46.080;11.118;2022-09-09T10:57:58;99164.13;;;21.20;69.50
49759;BME280;35654;46.080;11.118;2022-09-09T11:00:36;99165.44;;;21.26;68.66
49759;BME280;35654;46.080;11.118;2022-09-09T11:03:04;99157.31;;;21.40;67.81
49759;BME280;35654;46.080;11.118;2022-09-09T11:05:41;99157.69;;;21.38;66.38
49759;BME280;35654;46.080;11.118;2022-09-09T11:08:21;99163.50;;;21.53;68.32
49759;BME280;35654;46.080;11.118;2022-09-09T11:16:33;99159.00;;;21.44;68.24
49759;BME280;35654;46.080;11.118;2022-09-09T11:19:11;99157.00;;;21.22;69.28
49759;BME280;35654;46.080;11.118;2022-09-09T11:21:47;99153.81;;;21.43;68.38
49759;BME280;35654;46.080;11.118;2022-09-09T11:24:41;99162.41;;;21.57;67.73
49759;BME280;35654;46.080;11.118;2022-09-09T11:29:58;99159.94;;;21.52;67.81
49759;BME280;35654;46.080;11.118;2022-09-09T11:38:51;99156.81;;;22.06;66.06
49759;BME280;35654;46.080;11.118;2022-09-09T11:41:19;99145.19;;;22.00;65.95
49759;BME280;35654;46.080;11.118;2022-09-09T11:43:54;99145.44;;;21.66;67.04
49759;BME280;35654;46.080;11.118;2022-09-09T11:46:22;99141.97;;;21.98;65.53
49759;BME280;35654;46.080;11.118;2022-09-09T11:49:05;99136.53;;;22.35;64.72
49759;BME280;35654;46.080;11.118;2022-09-09T11:51:32;99133.28;;;22.63;62.69
49759;BME280;35654;46.080;11.118;2022-09-09T11:54:00;99123.25;;;22.58;62.82
49759;BME280;35654;46.080;11.118;2022-09-09T11:56:44;99129.53;;;23.59;60.09
49759;BME280;35654;46.080;11.118;2022-09-09T11:59:21;99117.56;;;24.23;57.22
49759;BME280;35654;46.080;11.118;2022-09-09T12:02:32;99113.59;;;24.24;57.05
49759;BME280;35654;46.080;11.118;2022-09-09T12:05:07;99111.97;;;25.70;53.32
49759;BME280;35654;46.080;11.118;2022-09-09T12:07:40;99107.91;;;26.06;50.93
49759;BME280;35654;46.080;11.118;2022-09-09T12:12:37;99112.38;;;25.51;52.39
49759;BME280;35654;46.080;11.118;2022-09-09T12:17:29;99100.63;;;29.60;42.13
49759;BME280;35654;46.080;11.118;2022-09-09T12:23:05;99088.97;;;29.58;38.75
49759;BME280;35654;46.080;11.118;2022-09-09T12:25:57;99078.47;;;30.05;36.98
49759;BME280;35654;46.080;11.118;2022-09-09T12:28:52;99075.72;;;31.00;36.41
49759;BME280;35654;46.080;11.118;2022-09-09T12:32:05;99070.16;;;32.51;34.21
49759;BME280;35654;46.080;11.118;2022-09-09T12:34:28;99063.09;;;32.84;33.07
49759;BME280;35654;46.080;11.118;2022-09-09T12:37:08;99068.22;;;33.39;32.54
49759;BME280;35654;46.080;11.118;2022-09-09T12:39:43;99065.19;;;33.34;32.56
49759;BME280;35654;46.080;11.118;2022-09-09T12:42:23;99065.41;;;33.39;31.45
49759;BME280;35654;46.080;11.118;2022-09-09T12:44:56;99053.59;;;33.41;31.56
49759;BME280;35654;46.080;11.118;2022-09-09T12:47:28;99053.44;;;34.04;30.71
49759;BME280;35654;46.080;11.118;2022-09-09T12:49:55;99049.81;;;33.57;31.95
49759;BME280;35654;46.080;11.118;2022-09-09T12:52:31;99052.59;;;35.52;28.73
49759;BME280;35654;46.080;11.118;2022-09-09T12:55:00;99042.34;;;33.63;30.94
49759;BME280;35654;46.080;11.118;2022-09-09T12:57:33;99040.88;;;33.92;30.97
49759;BME280;35654;46.080;11.118;2022-09-09T13:02:55;99034.19;;;36.11;26.44
49759;BME280;35654;46.080;11.118;2022-09-09T13:05:34;99033.19;;;35.59;27.36
49759;BME280;35654;46.080;11.118;2022-09-09T13:08:04;99025.94;;;34.88;28.87
49759;BME280;35654;46.080;11.118;2022-09-09T13:10:34;99021.03;;;36.13;26.69
49759;BME280;35654;46.080;11.118;2022-09-09T13:13:01;99017.22;;;36.26;26.59
49759;BME280;35654;46.080;11.118;2022-09-09T13:15:28;99009.94;;;35.21;27.86
49759;BME280;35654;46.080;11.118;2022-09-09T13:17:57;99001.00;;;37.10;25.66
49759;BME280;35654;46.080;11.118;2022-09-09T13:20:23;98997.41;;;36.91;25.59
49759;BME280;35654;46.080;11.118;2022-09-09T13:22:51;99000.00;;;35.17;27.38
49759;BME280;35654;46.080;11.118;2022-09-09T13:27:58;98988.31;;;35.33;27.56
49759;BME280;35654;46.080;11.118;2022-09-09T13:30:30;98976.97;;;34.62;28.59
49759;BME280;35654;46.080;11.118;2022-09-09T13:35:27;98979.88;;;36.14;26.81
49759;BME280;35654;46.080;11.118;2022-09-09T13:37:53;98967.41;;;37.76;24.99
49759;BME280;35654;46.080;11.118;2022-09-09T13:40:22;98969.66;;;37.24;24.51
49759;BME280;35654;46.080;11.118;2022-09-09T13:42:52;98966.06;;;37.48;23.85
49759;BME280;35654;46.080;11.118;2022-09-09T13:45:22;98971.66;;;38.19;23.11
49759;BME280;35654;46.080;11.118;2022-09-09T13:47:48;98969.78;;;35.19;27.01
49759;BME280;35654;46.080;11.118;2022-09-09T13:52:53;98961.50;;;35.97;25.52
49759;BME280;35654;46.080;11.118;2022-09-09T13:55:21;98958.47;;;36.01;25.57
49759;BME280;35654;46.080;11.118;2022-09-09T13:57:58;98949.81;;;37.54;24.27
49759;BME280;35654;46.080;11.118;2022-09-09T14:00:26;98950.53;;;37.40;24.00
49759;BME280;35654;46.080;11.118;2022-09-09T14:02:53;98936.19;;;37.01;24.79
49759;BME280;35654;46.080;11.118;2022-09-09T14:05:20;98927.50;;;38.49;22.84
49759;BME280;35654;46.080;11.118;2022-09-09T14:07:47;98913.19;;;38.05;22.57
49759;BME280;35654;46.080;11.118;2022-09-09T14:10:13;98915.34;;;38.54;22.13
49759;BME280;35654;46.080;11.118;2022-09-09T14:12:39;98914.50;;;37.80;22.99
49759;BME280;35654;46.080;11.118;2022-09-09T14:15:06;98919.25;;;35.69;25.36
49759;BME280;35654;46.080;11.118;2022-09-09T14:17:32;98919.63;;;36.31;25.26
49759;BME280;35654;46.080;11.118;2022-09-09T14:19:58;98910.84;;;37.42;24.31
49759;BME280;35654;46.080;11.118;2022-09-09T14:22:24;98913.00;;;37.32;24.48
49759;BME280;35654;46.080;11.118;2022-09-09T14:24:50;98913.78;;;37.56;24.02
49759;BME280;35654;46.080;11.118;2022-09-09T14:27:16;98912.25;;;37.22;24.32
49759;BME280;35654;46.080;11.118;2022-09-09T14:29:41;98902.13;;;37.21;24.32
49759;BME280;35654;46.080;11.118;2022-09-09T14:32:09;98910.41;;;36.87;25.14
49759;BME280;35654;46.080;11.118;2022-09-09T14:34:34;98908.63;;;36.98;24.92
49759;BME280;35654;46.080;11.118;2022-09-09T14:37:00;98900.44;;;37.15;24.44
49759;BME280;35654;46.080;11.118;2022-09-09T14:39:26;98908.44;;;34.69;27.53
49759;BME280;35654;46.080;11.118;2022-09-09T14:41:51;98907.75;;;34.04;28.63
49759;BME280;35654;46.080;11.118;2022-09-09T14:44:17;98896.44;;;35.41;26.96
49759;BME280;35654;46.080;11.118;2022-09-09T14:46:43;98885.03;;;36.56;25.28
49759;BME280;35654;46.080;11.118;2022-09-09T14:49:08;98894.72;;;37.77;24.28
49759;BME280;35654;46.080;11.118;2022-09-09T14:51:35;98889.13;;;37.20;24.49
49759;BME280;35654;46.080;11.118;2022-09-09T14:54:02;98883.44;;;36.55;25.72
49759;BME280;35654;46.080;11.118;2022-09-09T14:56:31;98886.88;;;37.01;24.71
49759;BME280;35654;46.080;11.118;2022-09-09T14:58:58;98890.84;;;36.19;26.15
49759;BME280;35654;46.080;11.118;2022-09-09T15:01:24;98900.69;;;35.91;26.34
49759;BME280;35654;46.080;11.118;2022-09-09T15:03:58;98892.81;;;34.65;27.69
49759;BME280;35654;46.080;11.118;2022-09-09T15:06:25;98895.31;;;35.12;27.56
49759;BME280;35654;46.080;11.118;2022-09-09T15:08:52;98893.75;;;35.20;27.04
49759;BME280;35654;46.080;11.118;2022-09-09T15:11:19;98900.75;;;33.95;28.60
49759;BME280;35654;46.080;11.118;2022-09-09T15:13:45;98890.13;;;35.37;27.09